createdAt,value
2022-09-28T00:01:17.964Z,98437.50
2022-09-28T00:03:47.093Z,98436.81
2022-09-28T00:06:16.899Z,98436.50
2022-09-28T00:08:44.139Z,98438.31
2022-09-28T00:11:13.825Z,98437.22
2022-09-28T00:13:42.966Z,98436.66
2022-09-28T00:16:15.637Z,98439.91
2022-09-28T00:18:44.162Z,98435.69
2022-09-28T00:21:14.653Z,98436.59
2022-09-28T00:24:01.480Z,98420.94
2022-09-28T00:26:30.926Z,98423.63
2022-09-28T00:29:00.893Z,98420.22
2022-09-28T00:31:33.235Z,98421.34
2022-09-28T00:34:02.329Z,98422.81
2022-09-28T00:36:35.788Z,98419.25
2022-09-28T00:39:17.842Z,98403.13
2022-09-28T00:41:46.109Z,98410.19
2022-09-28T00:44:46.594Z,98408.44
2022-09-28T00:47:38.845Z,98406.97
2022-09-28T00:50:18.711Z,98416.88
2022-09-28T00:53:03.969Z,98406.91
2022-09-28T00:55:46.606Z,98402.38
2022-09-28T00:58:20.313Z,98397.75
2022-09-28T01:00:49.716Z,98400.88
2022-09-28T01:03:17.982Z,98393.78
2022-09-28T01:05:47.209Z,98398.03
2022-09-28T01:08:16.310Z,98403.94
2022-09-28T01:10:43.885Z,98398.50
2022-09-28T01:13:13.848Z,98402.47
2022-09-28T01:15:56.722Z,98394.63
2022-09-28T01:18:33.249Z,98403.94
2022-09-28T01:21:08.211Z,98389.97
2022-09-28T01:24:03.336Z,98392.75
2022-09-28T01:26:54.492Z,98398.59
2022-09-28T01:29:26.046Z,98382.84
2022-09-28T01:32:09.019Z,98387.28
2022-09-28T01:34:44.157Z,98377.22
2022-09-28T01:37:16.069Z,98387.00
2022-09-28T01:39:48.527Z,98393.69
2022-09-28T01:42:22.198Z,98391.09
2022-09-28T01:44:52.301Z,98387.13
2022-09-28T01:47:24.220Z,98385.91
2022-09-28T01:50:14.803Z,98387.03
2022-09-28T01:52:56.981Z,98385.72
2022-09-28T01:55:33.998Z,98375.28
2022-09-28T01:58:18.870Z,98381.94
2022-09-28T02:00:52.213Z,98373.78
2022-09-28T02:03:30.086Z,98381.66
2022-09-28T02:06:14.870Z,98383.31
2022-09-28T02:08:50.453Z,98375.91
2022-09-28T02:11:20.819Z,98380.09
2022-09-28T02:14:05.679Z,98388.31
2022-09-28T02:16:45.129Z,98387.84
2022-09-28T02:19:25.940Z,98377.94
2022-09-28T02:22:26.288Z,98374.81
2022-09-28T02:24:59.233Z,98362.88
2022-09-28T02:27:38.458Z,98365.56
2022-09-28T02:30:07.629Z,98372.69
2022-09-28T02:32:41.429Z,98371.00
2022-09-28T02:35:15.626Z,98352.34
2022-09-28T02:37:44.370Z,98355.59
2022-09-28T02:40:22.050Z,98363.44
2022-09-28T02:42:59.998Z,98365.00
2022-09-28T02:45:28.239Z,98357.69
2022-09-28T02:48:15.002Z,98350.84
2022-09-28T02:50:57.131Z,98353.16
2022-09-28T02:53:24.253Z,98356.19
2022-09-28T02:56:22.508Z,98354.34
2022-09-28T02:59:10.090Z,98352.69
2022-09-28T03:01:52.615Z,98339.28
2022-09-28T03:04:41.975Z,98367.41
2022-09-28T03:07:51.168Z,98353.97
2022-09-28T03:10:54.014Z,98362.78
2022-09-28T03:13:21.983Z,98362.22
2022-09-28T03:15:49.227Z,98361.69
2022-09-28T03:18:18.744Z,98353.44
2022-09-28T03:20:47.587Z,98355.38
2022-09-28T03:23:29.946Z,98356.47
2022-09-28T03:25:57.593Z,98350.94
2022-09-28T03:28:24.821Z,98352.06
2022-09-28T03:30:52.836Z,98354.72
2022-09-28T03:33:20.539Z,98344.94
2022-09-28T03:35:49.201Z,98343.00
2022-09-28T03:38:21.087Z,98343.00
2022-09-28T03:40:55.625Z,98352.88
2022-09-28T03:43:24.676Z,98342.69
2022-09-28T03:45:54.136Z,98357.75
2022-09-28T03:48:30.028Z,98353.34
2022-09-28T03:51:02.069Z,98340.47
2022-09-28T03:53:30.030Z,98343.09
2022-09-28T03:56:03.803Z,98341.97
2022-09-28T03:58:32.701Z,98352.13
2022-09-28T04:01:14.136Z,98328.34
2022-09-28T04:03:42.085Z,98328.22
2022-09-28T04:06:09.551Z,98325.66
2022-09-28T04:08:36.736Z,98319.66
2022-09-28T04:11:04.591Z,98319.63
2022-09-28T04:13:32.032Z,98323.59
2022-09-28T04:16:01.275Z,98312.66
2022-09-28T04:18:32.991Z,98308.13
2022-09-28T04:21:12.484Z,98313.56
2022-09-28T04:23:44.329Z,98300.78
2022-09-28T04:26:18.108Z,98311.69
2022-09-28T04:29:06.754Z,98311.16
2022-09-28T04:31:49.843Z,98301.31
2022-09-28T04:34:20.519Z,98290.94
2022-09-28T04:36:48.744Z,98289.41
2022-09-28T04:39:17.863Z,98293.13
2022-09-28T04:41:49.321Z,98295.16
2022-09-28T04:44:17.128Z,98280.16
2022-09-28T04:46:46.118Z,98285.53
2022-09-28T04:49:39.224Z,98297.69
2022-09-28T04:52:17.813Z,98293.16
2022-09-28T04:54:45.922Z,98303.59
2022-09-28T04:57:13.111Z,98298.69
2022-09-28T04:59:40.358Z,98297.97
2022-09-28T05:02:07.803Z,98304.25
2022-09-28T05:04:55.390Z,98294.63
2022-09-28T05:07:39.189Z,98295.66
2022-09-28T05:10:07.413Z,98304.59
2022-09-28T05:12:35.338Z,98303.19
2022-09-28T05:15:04.073Z,98299.41
2022-09-28T05:17:31.865Z,98305.16
2022-09-28T05:20:06.819Z,98294.41
2022-09-28T05:22:34.335Z,98297.19
2022-09-28T05:25:02.971Z,98309.47
2022-09-28T05:27:36.567Z,98300.97
2022-09-28T05:30:08.936Z,98299.78
2022-09-28T05:33:14.777Z,98301.50
2022-09-28T05:35:47.139Z,98298.00
2022-09-28T05:38:17.412Z,98297.72
2022-09-28T05:40:44.637Z,98305.41
2022-09-28T05:43:11.956Z,98301.69
2022-09-28T05:45:39.452Z,98296.72
2022-09-28T05:48:06.800Z,98298.09
2022-09-28T05:50:34.174Z,98299.44
2022-09-28T05:53:05.879Z,98298.75
2022-09-28T05:55:33.512Z,98290.91
2022-09-28T05:58:02.328Z,98297.44
2022-09-28T06:00:31.620Z,98286.81
2022-09-28T06:03:11.846Z,98295.97
2022-09-28T06:05:39.887Z,98297.03
2022-09-28T06:08:10.482Z,98296.75
2022-09-28T06:10:40.023Z,98302.13
2022-09-28T06:13:08.573Z,98303.25
2022-09-28T06:15:36.551Z,98295.31
2022-09-28T06:18:06.908Z,98297.16
2022-09-28T06:20:42.084Z,98295.00
2022-09-28T06:23:14.362Z,98290.94
2022-09-28T06:25:41.659Z,98294.25
2022-09-28T06:28:14.434Z,98289.06
2022-09-28T06:30:42.890Z,98283.50
2022-09-28T06:33:14.484Z,98277.09
2022-09-28T06:35:42.482Z,98295.84
2022-09-28T06:38:10.336Z,98290.94
2022-09-28T06:40:38.456Z,98294.03
2022-09-28T06:43:10.645Z,98285.13
2022-09-28T06:45:57.020Z,98278.47
2022-09-28T06:48:50.781Z,98288.91
2022-09-28T06:51:22.193Z,98289.31
2022-09-28T06:54:04.969Z,98279.94
2022-09-28T06:56:48.565Z,98286.22
2022-09-28T06:59:15.931Z,98276.16
2022-09-28T07:01:43.302Z,98277.69
2022-09-28T07:04:31.537Z,98295.84
2022-09-28T07:07:17.428Z,98290.03
2022-09-28T07:09:56.359Z,98291.69
2022-09-28T07:12:41.215Z,98297.25
2022-09-28T07:15:29.711Z,98303.91
2022-09-28T07:18:03.604Z,98300.69
2022-09-28T07:20:44.055Z,98297.38
2022-09-28T07:23:19.243Z,98295.25
2022-09-28T07:26:08.788Z,98276.25
2022-09-28T07:29:14.984Z,98289.56
2022-09-28T07:31:58.734Z,98289.81
2022-09-28T07:34:43.653Z,98287.66
2022-09-28T07:37:35.990Z,98294.75
2022-09-28T07:40:27.041Z,98293.91
2022-09-28T07:42:54.536Z,98296.22
2022-09-28T07:45:23.912Z,98299.53
2022-09-28T07:47:56.030Z,98296.59
2022-09-28T07:50:29.595Z,98286.47
2022-09-28T07:53:01.483Z,98293.16
2022-09-28T07:55:31.749Z,98289.03
2022-09-28T07:58:11.253Z,98302.81
2022-09-28T08:00:50.459Z,98303.31
2022-09-28T08:03:19.960Z,98296.31
2022-09-28T08:05:48.192Z,98307.03
2022-09-28T08:08:15.815Z,98300.00
2022-09-28T08:10:47.288Z,98291.63
2022-09-28T08:13:44.108Z,98302.50
2022-09-28T08:16:33.780Z,98299.38
2022-09-28T08:19:19.411Z,98307.94
2022-09-28T08:21:47.638Z,98291.75
2022-09-28T08:24:16.835Z,98303.41
2022-09-28T08:26:45.162Z,98294.88
2022-09-28T08:29:16.213Z,98294.13
2022-09-28T08:31:48.090Z,98302.81
2022-09-28T08:34:40.362Z,98305.22
2022-09-28T08:37:10.606Z,98293.69
2022-09-28T08:39:56.303Z,98289.38
2022-09-28T08:43:07.160Z,98307.44
2022-09-28T08:45:53.277Z,98300.81
2022-09-28T08:52:28.244Z,98323.97
2022-09-28T08:55:18.360Z,98313.84
2022-09-28T08:57:49.759Z,98319.53
2022-09-28T09:00:32.384Z,98322.91
2022-09-28T09:03:06.794Z,98323.44
2022-09-28T09:06:05.956Z,98319.41
2022-09-28T09:09:21.424Z,98329.91
2022-09-28T09:12:18.679Z,98318.97
2022-09-28T09:15:15.118Z,98315.91
2022-09-28T09:17:52.395Z,98319.25
2022-09-28T09:20:59.537Z,98318.81
2022-09-28T09:24:05.443Z,98315.22
2022-09-28T09:26:39.308Z,98321.75
2022-09-28T09:29:17.300Z,98329.50
2022-09-28T09:32:10.818Z,98323.81
2022-09-28T09:35:12.504Z,98333.72
2022-09-28T09:38:43.240Z,98329.91
2022-09-28T09:42:00.539Z,98319.31
2022-09-28T09:45:29.202Z,98322.47
2022-09-28T09:48:27.613Z,98333.47
2022-09-28T09:51:00.681Z,98325.75
2022-09-28T09:53:38.773Z,98321.44
2022-09-28T09:56:22.234Z,98328.63
2022-09-28T09:59:07.995Z,98320.31
2022-09-28T10:01:41.528Z,98315.38
2022-09-28T10:04:26.347Z,98326.69
2022-09-28T10:07:01.407Z,98318.84
2022-09-28T10:09:37.942Z,98324.91
2022-09-28T10:12:24.439Z,98330.50
2022-09-28T10:14:52.579Z,98322.03
2022-09-28T10:17:26.781Z,98327.00
2022-09-28T10:20:14.895Z,98332.38
2022-09-28T10:23:02.298Z,98324.31
2022-09-28T10:25:34.115Z,98319.31
2022-09-28T10:28:03.370Z,98326.78
2022-09-28T10:30:42.117Z,98325.28
2022-09-28T10:33:34.342Z,98330.09
2022-09-28T10:36:06.813Z,98336.13
2022-09-28T10:38:34.448Z,98347.34
2022-09-28T10:41:13.595Z,98334.88
2022-09-28T10:44:07.292Z,98334.50
2022-09-28T10:46:40.707Z,98347.13
2022-09-28T10:49:18.068Z,98337.19
2022-09-28T10:51:56.242Z,98345.28
2022-09-28T10:54:32.082Z,98345.84
2022-09-28T10:57:01.148Z,98347.53
2022-09-28T10:59:42.286Z,98350.88
2022-09-28T11:02:38.627Z,98343.81
2022-09-28T11:05:24.580Z,98345.28
2022-09-28T11:07:57.080Z,98347.97
2022-09-28T11:10:32.955Z,98351.50
2022-09-28T11:13:10.193Z,98354.81
2022-09-28T11:15:42.865Z,98351.91
2022-09-28T11:18:32.485Z,98344.66
2022-09-28T11:21:14.154Z,98358.78
2022-09-28T11:24:27.731Z,98349.38
2022-09-28T11:27:00.329Z,98342.13
2022-09-28T11:29:43.576Z,98356.69
2022-09-28T11:32:47.297Z,98359.59
2022-09-28T11:35:41.765Z,98361.22
2022-09-28T11:38:08.979Z,98367.47
2022-09-28T11:41:24.773Z,98361.69
2022-09-28T11:44:11.739Z,98350.06
2022-09-28T11:46:48.300Z,98354.94
2022-09-28T11:49:47.019Z,98345.63
2022-09-28T11:52:22.701Z,98348.06
2022-09-28T11:55:01.329Z,98349.63
2022-09-28T11:57:35.833Z,98346.00
2022-09-28T12:00:10.034Z,98351.09
2022-09-28T12:02:51.795Z,98348.94
2022-09-28T12:05:28.180Z,98339.31
2022-09-28T12:08:25.677Z,98349.28
2022-09-28T12:11:17.972Z,98349.25
2022-09-28T12:14:28.543Z,98336.53
2022-09-28T12:17:19.251Z,98333.88
2022-09-28T12:20:12.403Z,98342.47
2022-09-28T12:23:08.367Z,98349.94
2022-09-28T12:26:03.099Z,98342.00
2022-09-28T12:28:46.331Z,98344.44
2022-09-28T12:31:32.085Z,98345.72
2022-09-28T12:34:00.768Z,98336.94
2022-09-28T12:36:33.462Z,98327.13
2022-09-28T12:39:41.205Z,98333.22
2022-09-28T12:42:57.408Z,98331.72
2022-09-28T12:46:09.698Z,98342.94
2022-09-28T12:49:36.701Z,98343.97
2022-09-28T12:51:57.704Z,98349.16
2022-09-28T12:54:34.743Z,98346.50
2022-09-28T12:57:32.592Z,98351.06
2022-09-28T13:00:13.353Z,98352.53
2022-09-28T13:03:02.263Z,98355.41
2022-09-28T13:06:05.414Z,98354.41
2022-09-28T13:08:35.626Z,98353.13
2022-09-28T13:11:26.234Z,98348.59
2022-09-28T13:14:12.230Z,98358.94
2022-09-28T13:17:04.784Z,98354.88
2022-09-28T13:19:46.148Z,98352.88
2022-09-28T13:22:32.689Z,98348.44
2022-09-28T13:25:06.618Z,98358.59
2022-09-28T13:27:40.694Z,98347.34
2022-09-28T13:30:08.613Z,98360.25
2022-09-28T13:32:37.445Z,98359.59
2022-09-28T13:35:06.440Z,98361.28
2022-09-28T13:37:34.742Z,98359.66
2022-09-28T13:40:06.245Z,98367.69
2022-09-28T13:42:51.103Z,98365.66
2022-09-28T13:45:21.423Z,98376.06
2022-09-28T13:47:58.294Z,98369.66
2022-09-28T13:50:28.887Z,98377.16
2022-09-28T13:53:11.899Z,98366.56
2022-09-28T13:55:56.817Z,98368.06
2022-09-28T13:58:44.307Z,98373.69
2022-09-28T14:01:17.814Z,98369.75
2022-09-28T14:03:57.291Z,98376.19
2022-09-28T14:06:27.918Z,98380.53
2022-09-28T14:09:15.919Z,98380.34
2022-09-28T14:11:59.290Z,98371.22
2022-09-28T14:14:44.811Z,98379.75
2022-09-28T14:17:21.364Z,98382.22
2022-09-28T14:19:56.354Z,98371.22
2022-09-28T14:23:01.589Z,98382.41
2022-09-28T14:25:32.344Z,98381.56
2022-09-28T14:28:12.796Z,98393.41
2022-09-28T14:30:42.831Z,98381.16
2022-09-28T14:33:39.305Z,98396.94
2022-09-28T14:36:38.316Z,98394.44
2022-09-28T14:39:26.062Z,98389.25
2022-09-28T14:41:53.324Z,98400.03
2022-09-28T14:44:20.719Z,98398.34
2022-09-28T14:46:48.732Z,98395.66
2022-09-28T14:49:23.231Z,98403.31
2022-09-28T14:51:53.749Z,98399.53
2022-09-28T14:54:25.589Z,98400.19
2022-09-28T14:56:52.968Z,98401.69
2022-09-28T14:59:36.337Z,98411.44
2022-09-28T15:02:17.223Z,98403.09
2022-09-28T15:04:50.481Z,98410.53
2022-09-28T15:07:55.220Z,98403.50
2022-09-28T15:10:33.809Z,98413.84
2022-09-28T15:13:03.455Z,98414.66
2022-09-28T15:15:35.577Z,98402.97
2022-09-28T15:18:35.954Z,98418.59
2022-09-28T15:21:03.150Z,98413.56
2022-09-28T15:23:30.621Z,98417.56
2022-09-28T15:25:57.801Z,98409.63
2022-09-28T15:28:25.238Z,98416.97
2022-09-28T15:30:59.945Z,98413.06
2022-09-28T15:33:48.644Z,98424.66
2022-09-28T15:36:24.634Z,98421.47
2022-09-28T15:38:57.395Z,98416.00
2022-09-28T15:41:26.112Z,98431.59
2022-09-28T15:44:11.306Z,98422.00
2022-09-28T15:46:47.860Z,98424.31
2022-09-28T15:49:48.479Z,98416.56
2022-09-28T15:52:23.818Z,98422.84
2022-09-28T15:54:51.362Z,98419.81
2022-09-28T15:57:48.538Z,98423.88
2022-09-28T16:00:21.852Z,98432.97
2022-09-28T16:03:07.376Z,98432.66
2022-09-28T16:06:05.658Z,98437.09
2022-09-28T16:08:33.123Z,98441.38
2022-09-28T16:11:38.211Z,98437.53
2022-09-28T16:14:21.905Z,98432.72
2022-09-28T16:16:51.847Z,98437.72
2022-09-28T16:19:27.175Z,98440.03
2022-09-28T16:21:59.602Z,98448.34
2022-09-28T16:24:33.291Z,98437.44
2022-09-28T16:27:02.674Z,98451.69
2022-09-28T16:29:42.127Z,98437.72
2022-09-28T16:32:41.876Z,98450.88
2022-09-28T16:35:21.356Z,98450.44
2022-09-28T16:37:57.720Z,98451.06
2022-09-28T16:40:25.930Z,98450.25
2022-09-28T16:42:56.293Z,98454.28
2022-09-28T16:45:23.902Z,98452.06
2022-09-28T16:47:55.019Z,98450.31
2022-09-28T16:50:23.498Z,98450.97
2022-09-28T16:53:25.211Z,98455.03
2022-09-28T16:55:52.634Z,98462.78
2022-09-28T16:58:19.844Z,98442.59
2022-09-28T17:00:47.170Z,98441.53
2022-09-28T17:03:18.487Z,98442.94
2022-09-28T17:05:48.031Z,98453.19
2022-09-28T17:08:17.791Z,98433.81
2022-09-28T17:11:09.665Z,98444.75
2022-09-28T17:13:36.003Z,98442.19
2022-09-28T17:16:11.087Z,98438.75
2022-09-28T17:18:39.950Z,98443.13
2022-09-28T17:21:12.541Z,98443.44
2022-09-28T17:23:39.941Z,98441.84
2022-09-28T17:26:08.125Z,98440.28
2022-09-28T17:28:36.584Z,98448.88
2022-09-28T17:31:04.988Z,98445.41
2022-09-28T17:33:32.213Z,98441.94
2022-09-28T17:36:01.718Z,98443.28
2022-09-28T17:38:29.347Z,98446.31
2022-09-28T17:40:56.786Z,98452.50
2022-09-28T17:43:24.063Z,98447.25
2022-09-28T17:45:51.858Z,98449.81
2022-09-28T17:48:23.513Z,98434.63
2022-09-28T17:50:51.253Z,98450.78
2022-09-28T17:53:19.757Z,98447.25
2022-09-28T17:55:46.946Z,98447.41
2022-09-28T17:58:22.261Z,98450.03
2022-09-28T18:00:51.515Z,98447.25
2022-09-28T18:03:24.027Z,98449.03
2022-09-28T18:06:06.705Z,98454.78
2022-09-28T18:08:34.555Z,98448.47
2022-09-28T18:11:01.939Z,98453.91
2022-09-28T18:13:29.244Z,98451.53
2022-09-28T18:15:56.711Z,98455.59
2022-09-28T18:18:25.164Z,98449.41
2022-09-28T18:20:52.614Z,98451.06
2022-09-28T18:23:20.085Z,98443.41
2022-09-28T18:25:47.692Z,98447.59
2022-09-28T18:28:15.209Z,98446.84
2022-09-28T18:30:44.490Z,98459.72
2022-09-28T18:33:13.668Z,98455.84
2022-09-28T18:35:41.319Z,98457.56
2022-09-28T18:38:08.578Z,98452.63
2022-09-28T18:40:36.477Z,98454.66
2022-09-28T18:43:04.105Z,98461.13
2022-09-28T18:45:33.180Z,98463.03
2022-09-28T18:48:01.183Z,98458.59
2022-09-28T18:50:28.431Z,98453.69
2022-09-28T18:53:11.400Z,98456.00
2022-09-28T18:55:42.813Z,98451.91
2022-09-28T18:58:11.718Z,98459.59
2022-09-28T19:00:40.359Z,98453.56
2022-09-28T19:03:11.165Z,98459.69
2022-09-28T19:05:43.069Z,98447.69
2022-09-28T19:08:10.504Z,98457.19
2022-09-28T19:10:37.747Z,98454.19
2022-09-28T19:13:05.049Z,98474.69
2022-09-28T19:15:32.627Z,98469.09
2022-09-28T19:17:59.971Z,98469.97
2022-09-28T19:20:27.119Z,98469.00
2022-09-28T19:22:55.259Z,98457.16
2022-09-28T19:25:22.430Z,98464.63
2022-09-28T19:27:49.574Z,98464.00
2022-09-28T19:30:17.133Z,98460.34
2022-09-28T19:32:44.474Z,98466.34
2022-09-28T19:35:11.886Z,98474.34
2022-09-28T19:37:39.434Z,98476.81
2022-09-28T19:40:07.852Z,98469.72
2022-09-28T19:42:36.317Z,98457.25
2022-09-28T19:45:03.934Z,98484.81
2022-09-28T19:47:31.891Z,98483.72
2022-09-28T19:49:59.189Z,98476.34
2022-09-28T19:52:26.595Z,98472.19
2022-09-28T19:54:57.009Z,98474.34
2022-09-28T19:57:32.594Z,98476.34
2022-09-28T20:00:03.534Z,98477.72
2022-09-28T20:02:35.128Z,98478.50
2022-09-28T20:05:03.093Z,98472.25
2022-09-28T20:07:33.085Z,98471.53
2022-09-28T20:10:00.391Z,98471.25
2022-09-28T20:12:27.797Z,98476.97
2022-09-28T20:14:54.943Z,98482.00
2022-09-28T20:17:22.155Z,98490.19
2022-09-28T20:19:51.792Z,98487.63
2022-09-28T20:22:20.130Z,98482.97
2022-09-28T20:24:47.349Z,98474.34
2022-09-28T20:27:14.858Z,98482.94
2022-09-28T20:29:43.154Z,98477.75
2022-09-28T20:32:11.624Z,98482.09
2022-09-28T20:34:39.030Z,98489.00
2022-09-28T20:37:06.323Z,98488.00
2022-09-28T20:39:34.533Z,98486.78
2022-09-28T20:42:02.134Z,98487.63
2022-09-28T20:44:29.324Z,98488.53
2022-09-28T20:46:56.817Z,98486.50
2022-09-28T20:49:24.525Z,98486.84
2022-09-28T20:51:51.668Z,98485.81
2022-09-28T20:54:18.892Z,98491.25
2022-09-28T20:56:48.258Z,98489.63
2022-09-28T20:59:15.809Z,98490.00
2022-09-28T21:01:43.172Z,98502.03
2022-09-28T21:04:10.976Z,98496.44
2022-09-28T21:06:40.586Z,98493.94
2022-09-28T21:09:10.482Z,98489.03
2022-09-28T21:11:40.327Z,98492.34
2022-09-28T21:14:09.699Z,98494.56
2022-09-28T21:16:37.103Z,98484.25
2022-09-28T21:19:04.827Z,98498.47
2022-09-28T21:21:32.200Z,98496.28
2022-09-28T21:23:59.579Z,98498.13
2022-09-28T21:26:28.629Z,98496.69
2022-09-28T21:28:59.721Z,98485.00
2022-09-28T21:31:33.516Z,98506.09
2022-09-28T21:34:00.956Z,98501.22
2022-09-28T21:36:28.369Z,98497.41
2022-09-28T21:38:56.179Z,98498.03
2022-09-28T21:41:26.924Z,98507.44
2022-09-28T21:43:54.332Z,98493.75
2022-09-28T21:46:21.718Z,98501.47
2022-09-28T21:48:53.513Z,98503.44
2022-09-28T21:51:21.605Z,98506.50
2022-09-28T21:53:49.342Z,98497.56
2022-09-28T21:56:17.591Z,98502.56
2022-09-28T21:58:44.972Z,98502.84
2022-09-28T22:01:16.898Z,98504.59
2022-09-28T22:03:47.415Z,98505.03
2022-09-28T22:06:17.119Z,98515.44
2022-09-28T22:08:44.788Z,98500.75
2022-09-28T22:11:23.453Z,98504.63
2022-09-28T22:13:53.654Z,98503.59
2022-09-28T22:16:23.282Z,98508.38
2022-09-28T22:18:50.866Z,98502.88
2022-09-28T22:21:26.354Z,98507.66
2022-09-28T22:24:07.738Z,98512.84
2022-09-28T22:26:37.123Z,98514.97
2022-09-28T22:29:07.105Z,98512.84
2022-09-28T22:31:36.777Z,98505.50
2022-09-28T22:34:05.298Z,98512.84
2022-09-28T22:36:33.860Z,98527.03
2022-09-28T22:39:01.214Z,98539.66
2022-09-28T22:41:28.688Z,98521.00
2022-09-28T22:43:56.168Z,98524.66
2022-09-28T22:46:26.697Z,98534.06
2022-09-28T22:48:56.368Z,98528.41
2022-09-28T22:51:24.872Z,98519.84
2022-09-28T22:53:52.170Z,98519.13
2022-09-28T22:56:19.730Z,98524.28
2022-09-28T22:58:47.664Z,98524.28
2022-09-28T23:01:30.849Z,98529.34
2022-09-28T23:03:59.529Z,98523.72
2022-09-28T23:06:29.079Z,98514.72
2022-09-28T23:08:56.732Z,98524.59
2022-09-28T23:11:24.143Z,98530.09
2022-09-28T23:13:52.469Z,98534.75
2022-09-28T23:16:20.290Z,98523.03
2022-09-28T23:18:49.298Z,98533.22
2022-09-28T23:21:18.895Z,98541.38
2022-09-28T23:23:50.906Z,98524.06
2022-09-28T23:26:21.205Z,98528.56
2022-09-28T23:28:48.744Z,98534.59
2022-09-28T23:31:18.962Z,98546.16
2022-09-28T23:33:46.448Z,98534.75
2022-09-28T23:36:14.037Z,98538.09
2022-09-28T23:38:41.429Z,98541.97
2022-09-28T23:41:09.376Z,98548.31
2022-09-28T23:43:36.907Z,98540.78
2022-09-28T23:46:05.251Z,98545.09
2022-09-28T23:48:33.278Z,98547.28
2022-09-28T23:51:00.716Z,98549.41
2022-09-28T23:53:28.345Z,98537.22
2022-09-28T23:55:55.748Z,98543.56
2022-09-28T23:58:22.951Z,98540.06
